Time;durP1;ratioP1;P1;durP2;ratioP2;P2;SDS_P1;SDS_P2;PMS_P1;PMS_P2;Temp;Humidity;BMP_temperature;BMP_pressure;BME280_temperature;BME280_humidity;BME280_pressure;Samples;Min_cycle;Max_cycle;Signal;HPM_P1;HPM_P2
2022/05/09 00:01:59;;;;;;;7.10;4.15;;;;;;;8.98;82.43;102680.34;5089661;28;20043;-66
2022/05/09 00:04:24;;;;;;;10.52;3.65;;;;;;;8.94;83.17;102689.59;5091438;28;20122;-66
2022/05/09 00:06:50;;;;;;;6.50;3.78;;;;;;;8.91;83.06;102693.66;5091745;28;20050;-66
2022/05/09 00:09:16;;;;;;;7.10;3.95;;;;;;;8.88;82.67;102682.34;5092128;28;20510;-66
2022/05/09 00:11:42;;;;;;;7.82;4.13;;;;;;;8.82;82.49;102676.75;5091464;28;20368;-67
2022/05/09 00:14:08;;;;;;;6.60;3.85;;;;;;;8.81;82.63;102677.53;5091142;28;20081;-67
2022/05/09 00:16:34;;;;;;;11.05;3.72;;;;;;;8.78;82.66;102672.13;5091610;28;20024;-66
2022/05/09 00:19:03;;;;;;;10.10;4.20;;;;;;;8.75;83.49;102675.44;5091590;28;20089;-66
2022/05/09 00:21:31;;;;;;;9.90;3.70;;;;;;;8.72;83.19;102682.97;5091239;28;20024;-66
2022/05/09 00:23:57;;;;;;;10.35;3.97;;;;;;;8.67;82.61;102675.69;5090868;28;20028;-66
2022/05/09 00:26:22;;;;;;;7.57;4.10;;;;;;;8.63;83.44;102674.56;5091179;28;20027;-66
2022/05/09 00:28:48;;;;;;;8.50;4.18;;;;;;;8.60;83.19;102672.66;5090812;28;20027;-67
2022/05/09 00:31:13;;;;;;;6.38;3.60;;;;;;;8.57;83.29;102672.47;5091267;28;20025;-66
2022/05/09 00:33:39;;;;;;;8.32;3.88;;;;;;;8.54;83.90;102672.22;5091411;28;20032;-66
2022/05/09 00:36:05;;;;;;;9.93;5.20;;;;;;;8.52;84.13;102673.78;5090612;28;20033;-66
2022/05/09 00:38:30;;;;;;;7.70;4.30;;;;;;;8.47;83.98;102670.00;5091364;28;20020;-67
2022/05/09 00:43:41;;;;;;;10.65;4.20;;;;;;;8.39;84.39;102662.59;5091154;28;20101;-66
2022/05/09 00:46:08;;;;;;;9.05;4.32;;;;;;;8.35;83.92;102660.56;5091473;28;20384;-67
2022/05/09 00:48:34;;;;;;;7.68;4.82;;;;;;;8.29;84.73;102670.50;5090253;28;20463;-66
2022/05/09 00:51:00;;;;;;;8.30;4.25;;;;;;;8.23;84.58;102672.63;5090993;28;20046;-67
2022/05/09 00:53:29;;;;;;;9.43;4.30;;;;;;;8.22;84.41;102665.69;5090905;28;20052;-67
2022/05/09 00:55:58;;;;;;;10.65;3.85;;;;;;;8.21;84.33;102672.53;5090045;28;20491;-66
2022/05/09 00:58:40;;;;;;;8.85;3.95;;;;;;;8.21;84.95;102662.19;5091014;28;20406;-67
2022/05/09 01:01:09;;;;;;;6.80;4.03;;;;;;;8.17;84.52;102667.91;5091045;28;20346;-66
2022/05/09 01:03:40;;;;;;;9.30;4.35;;;;;;;8.14;85.36;102665.13;5090600;28;20111;-66
2022/05/09 01:06:06;;;;;;;8.00;3.58;;;;;;;8.14;85.07;102662.53;5090396;28;20058;-66
2022/05/09 01:08:34;;;;;;;10.80;5.07;;;;;;;8.10;84.95;102666.59;5089682;28;20054;-66
2022/05/09 01:11:03;;;;;;;7.50;4.13;;;;;;;8.03;85.23;102669.50;5090765;28;20019;-66
2022/05/09 01:13:34;;;;;;;11.65;4.70;;;;;;;7.98;86.58;102658.88;5089959;28;20070;-69
2022/05/09 01:16:01;;;;;;;10.40;4.20;;;;;;;7.99;86.24;102659.75;5090347;28;20153;-66
2022/05/09 01:18:27;;;;;;;6.65;4.55;;;;;;;7.97;86.78;102653.59;5090206;28;20028;-67
2022/05/09 01:20:53;;;;;;;8.10;3.90;;;;;;;7.93;86.41;102653.34;5090028;28;20383;-65
2022/05/09 01:23:18;;;;;;;7.00;4.72;;;;;;;7.91;86.17;102648.88;5090058;28;20515;-67
2022/05/09 01:25:43;;;;;;;10.23;4.43;;;;;;;7.88;86.58;102641.81;5090732;28;20051;-66
2022/05/09 01:28:10;;;;;;;11.63;4.45;;;;;;;7.84;86.48;102644.97;5090151;28;20772;-66
2022/05/09 01:30:55;;;;;;;8.75;4.15;;;;;;;7.81;86.14;102647.31;5090250;28;20446;-67
2022/05/09 01:33:26;;;;;;;11.02;4.45;;;;;;;7.77;87.42;102647.91;5090061;28;20020;-67
2022/05/09 01:36:00;;;;;;;10.55;4.13;;;;;;;7.73;88.42;102641.63;5089521;28;20036;-66
2022/05/09 01:38:55;;;;;;;9.63;4.50;;;;;;;7.73;88.26;102648.44;5090095;28;20051;-67
2022/05/09 01:41:21;;;;;;;9.07;4.03;;;;;;;7.74;87.99;102640.81;5090258;28;20023;-66
2022/05/09 01:43:49;;;;;;;7.25;3.88;;;;;;;7.74;87.48;102645.06;5090560;28;20032;-67
2022/05/09 01:46:20;;;;;;;8.98;4.35;;;;;;;7.72;87.56;102639.81;5090111;28;20074;-67
2022/05/09 01:51:46;;;;;;;10.05;4.57;;;;;;;7.62;87.80;102638.25;5066437;28;20059;-66
2022/05/09 01:54:14;;;;;;;11.98;4.95;;;;;;;7.55;88.46;102644.66;5084236;28;20402;-66
2022/05/09 01:56:41;;;;;;;9.30;4.32;;;;;;;7.49;88.79;102646.75;5089694;28;20392;-67
2022/05/09 01:59:08;;;;;;;9.50;5.28;;;;;;;7.42;89.11;102645.41;5089566;28;20043;-66
2022/05/09 02:01:41;;;;;;;8.38;4.68;;;;;;;7.40;88.75;102649.56;5088901;28;20032;-65
2022/05/09 02:04:07;;;;;;;9.23;4.43;;;;;;;7.34;89.42;102641.34;5089712;28;20046;-67
2022/05/09 02:06:32;;;;;;;10.32;4.63;;;;;;;7.36;89.79;102644.94;5089444;28;20016;-66
2022/05/09 02:08:58;;;;;;;10.32;4.82;;;;;;;7.30;89.43;102642.81;5089906;28;20204;-66
2022/05/09 02:11:23;;;;;;;9.45;4.80;;;;;;;7.26;89.99;102648.53;5089322;28;20101;-67
2022/05/09 02:13:48;;;;;;;8.65;4.53;;;;;;;7.21;89.93;102644.72;5088911;28;20593;-66
2022/05/09 02:16:14;;;;;;;11.35;4.53;;;;;;;7.17;90.46;102646.19;5102329;28;20028;-65
2022/05/09 02:18:39;;;;;;;7.75;4.57;;;;;;;7.13;90.77;102641.56;5108883;28;20046;-66
2022/05/09 02:21:05;;;;;;;8.52;4.40;;;;;;;7.12;90.69;102639.78;5108621;28;20371;-66
2022/05/09 02:23:31;;;;;;;9.43;4.90;;;;;;;7.08;91.11;102640.31;5108533;28;20099;-66
2022/05/09 02:25:56;;;;;;;12.48;4.72;;;;;;;7.06;91.36;102641.88;5106887;28;20409;-66
2022/05/09 02:28:22;;;;;;;8.13;4.80;;;;;;;7.02;91.89;102635.59;5108566;28;20016;-66
2022/05/09 02:30:47;;;;;;;9.25;4.75;;;;;;;7.03;91.90;102636.50;5108330;28;20015;-66
2022/05/09 02:33:13;;;;;;;6.70;4.50;;;;;;;7.03;91.82;102634.81;5107879;28;20224;-65
2022/05/09 02:35:40;;;;;;;7.45;5.38;;;;;;;7.00;91.84;102632.00;5107683;28;20058;-66
2022/05/09 02:38:05;;;;;;;8.68;4.97;;;;;;;6.99;92.44;102631.88;5107881;28;20059;-66
2022/05/09 02:40:33;;;;;;;13.15;5.25;;;;;;;6.98;92.06;102625.81;5108134;28;20522;-66
2022/05/09 02:42:59;;;;;;;6.82;4.65;;;;;;;6.97;91.90;102634.34;5108052;28;20034;-66
2022/05/09 02:45:25;;;;;;;11.35;4.90;;;;;;;6.93;91.71;102628.06;5108213;28;20020;-66
2022/05/09 02:47:51;;;;;;;7.85;4.95;;;;;;;6.91;91.91;102624.47;5107596;28;20489;-66
2022/05/09 02:50:17;;;;;;;9.23;4.80;;;;;;;6.88;92.63;102619.09;5108548;28;20019;-66
2022/05/09 02:52:43;;;;;;;10.02;5.25;;;;;;;6.88;92.34;102628.50;5109065;28;20026;-66
2022/05/09 02:55:10;;;;;;;13.27;5.32;;;;;;;6.88;92.07;102625.91;5109009;28;20079;-66
2022/05/09 02:57:36;;;;;;;13.75;6.03;;;;;;;6.87;92.16;102627.63;5108872;28;20027;-65
2022/05/09 03:00:11;;;;;;;12.45;5.03;;;;;;;6.84;92.12;102628.25;5108388;28;20023;-66
2022/05/09 03:02:36;;;;;;;8.98;5.00;;;;;;;6.82;92.16;102623.75;5108553;28;20027;-66
2022/05/09 03:05:03;;;;;;;13.43;5.25;;;;;;;6.78;92.41;102622.63;5108585;28;20018;-66
2022/05/09 03:07:28;;;;;;;6.90;4.55;;;;;;;6.75;93.02;102616.34;5108712;28;20028;-66
2022/05/09 03:09:54;;;;;;;11.25;5.00;;;;;;;6.74;93.38;102623.19;5108322;28;20087;-66
2022/05/09 03:12:19;;;;;;;11.27;4.85;;;;;;;6.75;93.49;102621.50;5108142;28;20483;-66
2022/05/09 03:14:46;;;;;;;9.07;4.95;;;;;;;6.70;93.41;102613.44;5108297;28;20031;-66
2022/05/09 03:17:12;;;;;;;9.45;5.32;;;;;;;6.66;94.32;102622.59;5108746;28;20087;-66
2022/05/09 03:19:38;;;;;;;10.57;4.78;;;;;;;6.68;93.88;102615.88;5107995;28;20049;-66
2022/05/09 03:22:03;;;;;;;11.05;5.07;;;;;;;6.67;93.36;102624.41;5109114;28;20031;-66
2022/05/09 03:24:29;;;;;;;10.10;4.65;;;;;;;6.61;93.54;102618.78;5106552;28;20016;-66
2022/05/09 03:26:54;;;;;;;9.00;5.18;;;;;;;6.54;93.66;102616.50;5108642;28;20023;-66
2022/05/09 03:29:20;;;;;;;9.10;4.80;;;;;;;6.49;94.75;102611.00;5108412;28;20027;-66
2022/05/09 03:31:47;;;;;;;11.90;5.20;;;;;;;6.45;94.17;102609.88;5108709;28;20485;-68
2022/05/09 03:34:13;;;;;;;10.93;5.28;;;;;;;6.41;94.17;102612.97;5108110;28;20052;-66
2022/05/09 03:36:39;;;;;;;8.95;4.55;;;;;;;6.40;94.81;102607.72;5107506;28;20032;-66
2022/05/09 03:39:05;;;;;;;13.02;5.82;;;;;;;6.36;95.11;102611.72;5108328;28;20023;-65
2022/05/09 03:41:31;;;;;;;11.45;5.85;;;;;;;6.31;94.93;102602.75;5108417;28;20020;-66
2022/05/09 03:43:56;;;;;;;13.93;5.10;;;;;;;6.28;95.14;102602.53;5107699;28;20059;-65
2022/05/09 03:46:22;;;;;;;13.65;5.97;;;;;;;6.31;95.88;102605.31;5106413;28;20019;-66
2022/05/09 03:48:48;;;;;;;8.90;5.22;;;;;;;6.32;95.36;102604.53;5106753;28;20027;-66
2022/05/09 03:51:13;;;;;;;8.02;5.22;;;;;;;6.30;95.59;102603.50;5106777;28;20081;-68
2022/05/09 03:53:39;;;;;;;8.55;5.13;;;;;;;6.28;96.11;102610.25;5106370;28;20760;-67
2022/05/09 03:56:05;;;;;;;12.38;5.30;;;;;;;6.23;96.21;102605.63;5106692;28;20427;-68
2022/05/09 03:58:30;;;;;;;12.48;4.70;;;;;;;6.21;96.35;102609.75;5106379;28;20047;-66
2022/05/09 04:00:56;;;;;;;9.77;5.85;;;;;;;6.21;96.23;102607.19;5107986;28;20474;-66
2022/05/09 04:03:21;;;;;;;10.90;5.13;;;;;;;6.18;96.22;102606.94;5108404;28;20475;-66
2022/05/09 04:05:46;;;;;;;12.75;5.90;;;;;;;6.17;96.70;102607.69;5106659;28;20022;-68
2022/05/09 04:08:17;;;;;;;10.82;5.55;;;;;;;6.19;96.68;102613.88;5107940;28;20020;-68
2022/05/09 04:10:44;;;;;;;12.93;5.88;;;;;;;6.20;96.91;102605.38;5105102;28;20134;-67
2022/05/09 04:13:10;;;;;;;12.30;5.65;;;;;;;6.19;97.08;102611.28;5107194;28;20418;-68
2022/05/09 04:18:22;;;;;;;11.20;5.35;;;;;;;6.12;97.23;102607.34;5106953;28;20074;-67
2022/05/09 04:20:50;;;;;;;11.75;5.88;;;;;;;6.11;97.70;102604.66;5103775;28;20016;-68
2022/05/09 04:23:16;;;;;;;10.13;5.50;;;;;;;6.08;98.31;102599.28;5106980;28;20023;-67
2022/05/09 04:25:42;;;;;;;9.55;5.90;;;;;;;6.07;98.00;102607.75;5106431;28;20477;-66
2022/05/09 04:28:08;;;;;;;12.05;5.40;;;;;;;6.09;98.63;102603.63;5105234;28;20019;-67
2022/05/09 04:30:35;;;;;;;9.45;5.40;;;;;;;6.12;98.39;102602.19;5106521;28;20011;-67
2022/05/09 04:33:01;;;;;;;9.43;5.70;;;;;;;6.15;98.02;102601.56;5106557;28;20072;-67
2022/05/09 04:35:28;;;;;;;9.68;6.75;;;;;;;6.17;98.56;102599.97;5106234;28;20042;-68
2022/05/09 04:37:55;;;;;;;10.57;6.03;;;;;;;6.20;98.26;102600.25;5107852;28;20114;-68
2022/05/09 04:40:29;;;;;;;7.90;5.47;;;;;;;6.24;98.41;102598.81;5107178;28;20072;-68
2022/05/09 04:42:56;;;;;;;8.90;5.57;;;;;;;6.25;98.42;102590.28;5107365;28;20023;-67
2022/05/09 04:45:22;;;;;;;7.78;5.43;;;;;;;6.31;98.64;102597.59;5108094;28;20032;-66
2022/05/09 04:47:50;;;;;;;7.63;5.38;;;;;;;6.33;98.61;102596.03;5105610;28;20093;-68
2022/05/09 04:50:16;;;;;;;8.98;5.60;;;;;;;6.35;99.10;102594.50;5110803;28;20300;-67
2022/05/09 04:52:42;;;;;;;13.40;5.97;;;;;;;6.41;99.25;102587.22;5111313;27;20031;-66
2022/05/09 04:55:08;;;;;;;11.85;5.93;;;;;;;6.46;98.76;102588.47;5111369;28;20028;-67
2022/05/09 04:57:33;;;;;;;12.23;5.97;;;;;;;6.55;98.87;102590.84;5111170;28;20019;-67
2022/05/09 04:59:59;;;;;;;11.05;6.72;;;;;;;6.63;98.48;102596.59;5111480;28;20098;-67
2022/05/09 05:02:24;;;;;;;14.13;6.63;;;;;;;6.72;98.26;102591.25;5111265;28;20023;-66
2022/05/09 05:04:50;;;;;;;10.43;6.20;;;;;;;6.79;98.25;102590.03;5111180;28;20026;-67
2022/05/09 05:07:15;;;;;;;11.07;7.45;;;;;;;6.89;97.59;102589.06;5111452;28;20023;-67
2022/05/09 05:09:40;;;;;;;16.38;6.60;;;;;;;6.99;97.13;102585.47;5110057;28;20274;-67
2022/05/09 05:12:06;;;;;;;18.67;6.85;;;;;;;7.07;96.68;102589.53;5110681;27;20038;-66
2022/05/09 05:14:31;;;;;;;15.23;6.90;;;;;;;7.16;95.91;102586.75;5108677;28;20082;-67
2022/05/09 05:17:00;;;;;;;12.05;5.80;;;;;;;7.27;94.57;102572.03;5108812;28;20428;-67
2022/05/09 05:19:31;;;;;;;12.23;6.15;;;;;;;7.35;93.95;102577.78;5110194;27;20023;-67
2022/05/09 05:21:57;;;;;;;16.67;6.85;;;;;;;7.44;93.85;102581.03;5109869;28;20558;-67
2022/05/09 05:24:22;;;;;;;14.48;6.45;;;;;;;7.55;92.58;102584.41;5110237;28;20106;-67
2022/05/09 05:26:47;;;;;;;16.00;6.57;;;;;;;7.66;93.19;102585.19;5111046;28;20482;-67
2022/05/09 05:29:14;;;;;;;12.10;6.53;;;;;;;7.75;92.57;102585.84;5110676;28;20032;-67
2022/05/09 05:31:39;;;;;;;10.98;6.55;;;;;;;7.84;91.48;102589.88;5111164;28;20027;-67
2022/05/09 05:34:05;;;;;;;14.10;6.35;;;;;;;7.90;91.63;102585.13;5110985;28;20450;-67
2022/05/09 05:36:30;;;;;;;11.23;6.20;;;;;;;8.00;90.77;102590.16;5110516;28;20027;-67
2022/05/09 05:38:55;;;;;;;13.10;5.90;;;;;;;8.11;90.42;102592.59;5111232;28;20055;-67
2022/05/09 05:41:22;;;;;;;16.27;7.38;;;;;;;8.21;90.32;102595.03;5110619;28;20023;-67
2022/05/09 05:43:48;;;;;;;11.32;5.97;;;;;;;8.34;89.80;102586.47;5110567;28;20098;-66
2022/05/09 05:46:14;;;;;;;12.18;5.97;;;;;;;8.49;89.23;102584.03;5110859;28;20110;-67
2022/05/09 05:48:40;;;;;;;15.95;6.05;;;;;;;8.62;89.04;102585.81;5110785;28;20095;-67
2022/05/09 05:51:05;;;;;;;12.10;6.15;;;;;;;8.77;87.83;102588.53;5110613;28;20576;-66
2022/05/09 05:53:31;;;;;;;12.80;6.72;;;;;;;8.94;88.47;102585.28;5110754;28;20098;-67
2022/05/09 05:55:56;;;;;;;9.52;5.53;;;;;;;9.09;87.32;102583.72;5110849;28;20095;-67
2022/05/09 05:58:26;;;;;;;12.63;6.00;;;;;;;9.25;84.73;102589.88;5110794;28;20030;-67
2022/05/09 06:00:52;;;;;;;11.15;6.18;;;;;;;9.42;84.74;102582.34;5110813;28;20385;-67
2022/05/09 06:03:20;;;;;;;10.98;5.80;;;;;;;9.50;83.75;102586.31;5109961;28;20023;-67
2022/05/09 06:05:45;;;;;;;12.27;6.15;;;;;;;9.69;84.35;102584.91;5110606;28;20054;-67
2022/05/09 06:08:10;;;;;;;13.23;5.82;;;;;;;9.69;82.49;102591.00;5109990;28;20120;-67
2022/05/09 06:10:36;;;;;;;12.65;6.20;;;;;;;9.86;81.70;102583.38;5110132;28;20015;-67
2022/05/09 06:13:02;;;;;;;16.33;6.55;;;;;;;9.94;80.90;102587.38;5110364;28;20035;-67
2022/05/09 06:15:34;;;;;;;11.18;5.10;;;;;;;10.11;81.70;102582.31;5110142;28;20072;-67
2022/05/09 06:18:02;;;;;;;9.60;5.63;;;;;;;10.28;80.93;102580.78;5109680;28;20118;-67
2022/05/09 06:20:31;;;;;;;9.95;5.63;;;;;;;10.44;80.11;102584.28;5110141;28;20571;-67
2022/05/09 06:22:59;;;;;;;12.15;5.20;;;;;;;10.51;77.76;102591.69;5110089;28;20038;-67
2022/05/09 06:25:26;;;;;;;11.27;5.93;;;;;;;10.72;79.20;102580.78;5110092;28;20015;-67
2022/05/09 06:27:52;;;;;;;10.77;5.30;;;;;;;10.85;77.72;102581.53;5110615;28;20510;-67
2022/05/09 06:30:19;;;;;;;14.30;6.40;;;;;;;11.01;77.00;102573.81;5110168;28;20050;-67
2022/05/09 06:32:45;;;;;;;12.02;6.60;;;;;;;11.10;76.08;102580.38;5104578;28;20032;-68
2022/05/09 06:35:14;;;;;;;11.13;5.32;;;;;;;11.26;74.36;102580.44;5089101;28;20039;-67
2022/05/09 06:37:41;;;;;;;12.00;5.47;;;;;;;11.46;73.76;102579.78;5089401;28;20103;-67
2022/05/09 06:40:09;;;;;;;8.63;5.30;;;;;;;11.69;74.18;102575.88;5087831;28;20337;-67
2022/05/09 06:42:35;;;;;;;10.02;5.68;;;;;;;11.80;72.39;102573.84;5103411;28;20015;-67
2022/05/09 06:45:01;;;;;;;16.38;5.38;;;;;;;11.85;70.33;102571.50;5108879;28;20509;-67
2022/05/09 06:47:26;;;;;;;11.35;5.32;;;;;;;11.93;71.90;102575.41;5108620;28;20019;-67
2022/05/09 06:49:51;;;;;;;11.98;5.38;;;;;;;12.23;72.45;102564.91;5108134;27;20288;-67
2022/05/09 06:52:17;;;;;;;7.68;4.57;;;;;;;12.54;71.83;102576.00;5108685;28;20090;-67
2022/05/09 06:54:42;;;;;;;10.20;5.25;;;;;;;12.77;69.29;102567.59;5099926;27;20024;-67
2022/05/09 06:57:07;;;;;;;11.02;4.65;;;;;;;13.00;69.42;102566.16;5106504;28;20027;-67
2022/05/09 06:59:34;;;;;;;11.02;5.13;;;;;;;13.26;69.22;102568.25;5089065;28;20020;-67
2022/05/09 07:02:00;;;;;;;9.02;5.05;;;;;;;13.52;68.04;102566.94;5090385;28;20020;-67
2022/05/09 07:04:26;;;;;;;12.38;6.85;;;;;;;13.74;65.95;102567.03;5091417;27;20193;-67
2022/05/09 07:06:52;;;;;;;12.68;5.95;;;;;;;13.97;65.28;102568.09;5090121;28;20443;-67
2022/05/09 07:09:17;;;;;;;11.68;5.75;;;;;;;14.12;64.40;102570.50;5104949;28;20055;-67
2022/05/09 07:11:43;;;;;;;9.80;5.68;;;;;;;14.29;63.74;102567.75;5103963;27;20031;-67
2022/05/09 07:14:09;;;;;;;11.27;5.68;;;;;;;14.49;63.44;102570.34;5089412;28;20146;-67
2022/05/09 07:16:35;;;;;;;9.50;5.97;;;;;;;14.65;62.23;102557.13;5087889;28;20020;-67
2022/05/09 07:19:00;;;;;;;10.73;5.40;;;;;;;14.91;62.81;102558.19;5088270;28;20023;-67
2022/05/09 07:21:26;;;;;;;8.52;5.60;;;;;;;15.12;62.61;102555.56;5088447;28;20037;-67
2022/05/09 07:23:52;;;;;;;13.85;5.90;;;;;;;15.19;60.98;102562.81;5101802;28;20390;-67
2022/05/09 07:26:17;;;;;;;11.73;5.78;;;;;;;15.03;61.12;102558.69;5102158;28;20046;-68
2022/05/09 07:28:42;;;;;;;10.90;5.38;;;;;;;15.29;61.68;102561.47;5088620;28;20068;-67
2022/05/09 07:31:09;;;;;;;10.55;6.15;;;;;;;15.43;60.95;102558.53;5087619;28;20077;-67
2022/05/09 07:33:35;;;;;;;12.05;5.30;;;;;;;15.60;60.14;102562.66;5096288;28;20024;-67
2022/05/09 07:36:01;;;;;;;11.88;6.43;;;;;;;15.75;58.98;102550.13;5091007;28;20027;-67
2022/05/09 07:38:26;;;;;;;11.65;5.70;;;;;;;15.83;58.59;102553.94;5087359;28;20066;-67
2022/05/09 07:40:52;;;;;;;12.35;5.72;;;;;;;16.08;59.08;102555.75;5087230;28;20034;-67
2022/05/09 07:43:23;;;;;;;10.43;5.82;;;;;;;16.37;59.26;102554.13;5088212;28;20039;-66
2022/05/09 07:45:50;;;;;;;11.25;5.43;;;;;;;16.61;57.69;102555.81;5087822;28;20383;-66
2022/05/09 07:48:16;;;;;;;13.50;6.32;;;;;;;16.82;57.23;102555.63;5088275;28;20103;-66
2022/05/09 07:50:42;;;;;;;12.32;5.80;;;;;;;16.99;57.08;102558.81;5087195;28;20450;-67
2022/05/09 07:53:12;;;;;;;11.57;5.57;;;;;;;17.22;54.88;102556.09;5088012;28;20495;-66
2022/05/09 07:55:38;;;;;;;11.70;6.10;;;;;;;17.36;54.30;102564.38;5088055;28;20359;-66
2022/05/09 07:58:04;;;;;;;12.93;6.35;;;;;;;17.62;55.58;102555.53;5088028;28;20402;-67
2022/05/09 08:00:30;;;;;;;9.85;5.80;;;;;;;17.90;54.62;102561.56;5087556;28;20028;-66
2022/05/09 08:02:55;;;;;;;11.52;5.25;;;;;;;18.20;52.97;102555.47;5088325;28;20027;-67
2022/05/09 08:05:21;;;;;;;10.82;6.07;;;;;;;18.39;52.25;102555.94;5088024;28;20075;-67
2022/05/09 08:07:46;;;;;;;9.38;5.38;;;;;;;18.55;51.83;102557.22;5087884;28;20027;-67
2022/05/09 08:10:13;;;;;;;10.00;5.50;;;;;;;18.69;51.37;102560.22;5088011;28;20036;-67
2022/05/09 08:12:38;;;;;;;11.65;6.20;;;;;;;18.76;51.43;102555.13;5087651;28;20381;-67
2022/05/09 08:15:06;;;;;;;11.77;5.78;;;;;;;18.96;50.45;102558.22;5088623;28;20035;-67
2022/05/09 08:17:32;;;;;;;10.77;5.57;;;;;;;19.14;48.53;102555.19;5091338;28;20503;-67
2022/05/09 08:19:57;;;;;;;10.52;4.85;;;;;;;19.33;47.54;102550.38;5087984;28;20067;-67
2022/05/09 08:22:24;;;;;;;11.35;5.78;;;;;;;19.51;48.68;102552.53;5094014;28;20471;-67
2022/05/09 08:24:50;;;;;;;10.68;5.47;;;;;;;19.65;48.02;102552.81;5111730;28;20395;-67
2022/05/09 08:27:15;;;;;;;8.57;4.70;;;;;;;19.80;47.66;102551.34;5111884;28;20023;-67
2022/05/09 08:29:40;;;;;;;9.00;5.00;;;;;;;19.75;47.55;102545.97;5112318;27;20023;-67
2022/05/09 08:32:06;;;;;;;13.88;6.32;;;;;;;19.90;48.50;102555.03;5100409;28;20114;-66
2022/05/09 08:34:32;;;;;;;9.23;4.65;;;;;;;20.11;47.24;102551.97;5091127;28;20458;-67
2022/05/09 08:36:57;;;;;;;10.75;5.57;;;;;;;20.26;45.99;102553.13;5091427;28;20031;-67
2022/05/09 08:39:26;;;;;;;8.80;5.45;;;;;;;20.39;48.00;102555.16;5090895;28;20582;-67
2022/05/09 08:42:05;;;;;;;10.77;5.15;;;;;;;20.45;46.43;102557.00;5090717;28;20408;-67
2022/05/09 08:44:56;;;;;;;8.43;5.50;;;;;;;20.56;46.13;102546.63;5093629;28;20039;-67
2022/05/09 08:47:31;;;;;;;11.15;5.60;;;;;;;20.60;44.86;102548.47;5106470;27;20076;-67
2022/05/09 08:50:02;;;;;;;8.25;4.60;;;;;;;20.76;44.42;102556.63;5111842;28;20027;-67
2022/05/09 08:52:42;;;;;;;9.98;4.38;;;;;;;20.90;44.69;102556.88;5100612;27;20036;-67
2022/05/09 08:55:09;;;;;;;9.23;4.45;;;;;;;20.91;43.25;102552.47;5106744;28;20031;-67
2022/05/09 08:57:40;;;;;;;9.00;4.07;;;;;;;20.93;42.84;102550.75;5098329;28;20024;-67
2022/05/09 09:00:10;;;;;;;7.43;4.05;;;;;;;20.98;44.29;102543.81;5090281;28;20055;-67
2022/05/09 09:02:57;;;;;;;7.27;4.23;;;;;;;21.02;42.22;102542.13;5090055;28;20019;-67
2022/05/09 09:05:25;;;;;;;11.68;4.35;;;;;;;21.09;41.48;102536.09;5104686;27;20258;-67
2022/05/09 09:08:16;;;;;;;9.77;3.42;;;;;;;21.11;42.30;102537.00;5110334;28;20459;-67
2022/05/09 09:10:49;;;;;;;9.07;4.35;;;;;;;21.26;43.67;102536.34;5108955;27;20028;-67
2022/05/09 09:13:36;;;;;;;8.93;3.80;;;;;;;21.47;42.87;102527.84;5108482;28;21286;-67
2022/05/09 09:16:12;;;;;;;8.77;3.20;;;;;;;21.56;40.70;102519.16;5109594;28;20019;-67
2022/05/09 09:18:46;;;;;;;7.07;3.17;;;;;;;21.63;40.22;102524.50;5110559;28;20036;-67
2022/05/09 09:21:29;;;;;;;7.15;3.33;;;;;;;21.66;40.73;102527.19;5111250;28;20039;-67
2022/05/09 09:24:26;;;;;;;7.60;3.80;;;;;;;21.71;38.73;102515.81;5110309;28;20047;-67
2022/05/09 09:27:28;;;;;;;7.20;2.90;;;;;;;21.87;42.26;102520.41;5094395;28;20437;-67
2022/05/09 09:30:10;;;;;;;6.10;2.63;;;;;;;22.05;40.61;102515.34;5104691;28;20540;-67
2022/05/09 09:32:39;;;;;;;7.63;3.67;;;;;;;22.14;40.58;102524.22;5102153;28;20031;-67
2022/05/09 09:35:32;;;;;;;8.30;3.50;;;;;;;21.92;38.93;102523.97;5108069;27;20047;-67
2022/05/09 09:38:19;;;;;;;8.02;3.42;;;;;;;21.98;39.60;102517.91;5091768;28;20106;-68
2022/05/09 09:40:46;;;;;;;7.80;3.63;;;;;;;21.90;39.72;102518.69;5102617;27;20043;-67
2022/05/09 09:43:11;;;;;;;7.60;3.50;;;;;;;21.93;38.36;102520.47;5091961;28;20388;-67
2022/05/09 09:45:54;;;;;;;6.75;3.72;;;;;;;21.90;38.99;102509.88;5093009;28;20032;-67
2022/05/09 09:48:23;;;;;;;7.00;2.63;;;;;;;22.05;40.70;102510.06;5109972;27;20032;-68
2022/05/09 09:51:05;;;;;;;6.93;3.00;;;;;;;22.29;41.01;102512.91;5094757;27;20082;-68
2022/05/09 09:53:49;;;;;;;6.88;2.53;;;;;;;22.52;41.19;102502.53;5090997;28;20107;-67
2022/05/09 09:56:20;;;;;;;7.57;3.22;;;;;;;22.69;39.63;102507.09;5095926;28;20031;-67
2022/05/09 09:58:46;;;;;;;7.55;2.53;;;;;;;22.80;41.14;102496.63;5099620;28;20031;-67
2022/05/09 10:01:20;;;;;;;8.55;3.38;;;;;;;22.88;40.30;102496.69;5099266;28;20439;-67
2022/05/09 10:03:48;;;;;;;5.97;3.00;;;;;;;23.02;39.84;102489.72;5097797;27;20074;-67
2022/05/09 10:06:21;;;;;;;8.30;3.63;;;;;;;22.99;39.33;102488.81;5089461;28;20063;-67
2022/05/09 10:09:06;;;;;;;6.60;3.65;;;;;;;22.94;38.36;102483.50;5097014;28;20106;-68
2022/05/09 10:11:33;;;;;;;10.45;4.05;;;;;;;22.87;38.69;102479.03;5093459;28;20047;-67
2022/05/09 10:14:01;;;;;;;7.28;3.70;;;;;;;22.79;37.55;102487.78;5096078;27;20100;-68
2022/05/09 10:16:48;;;;;;;7.78;3.50;;;;;;;22.93;40.47;102478.19;5101067;28;20038;-67
2022/05/09 10:19:29;;;;;;;6.35;3.55;;;;;;;22.96;38.52;102476.47;5105536;28;20027;-67
2022/05/09 10:24:52;;;;;;;9.55;4.53;;;;;;;22.90;37.52;102468.50;5098395;28;20029;-68
2022/05/09 10:27:20;;;;;;;7.38;4.43;;;;;;;22.74;37.67;102463.09;5109182;28;20038;-66
2022/05/09 10:29:45;;;;;;;7.85;3.60;;;;;;;22.78;38.19;102464.00;5093947;28;20460;-67
2022/05/09 10:32:13;;;;;;;10.02;4.00;;;;;;;22.94;40.44;102459.72;5103707;28;20032;-66
2022/05/09 10:34:55;;;;;;;8.38;4.45;;;;;;;22.96;38.26;102457.06;5105219;27;20522;-68
2022/05/09 10:37:28;;;;;;;9.65;5.05;;;;;;;22.88;37.44;102455.25;5096284;27;20074;-67
2022/05/09 10:40:01;;;;;;;7.15;4.63;;;;;;;22.88;38.53;102460.56;5099951;27;20024;-67
2022/05/09 10:42:34;;;;;;;10.10;4.40;;;;;;;22.95;38.40;102445.63;5122426;27;20260;-66
2022/05/09 10:45:09;;;;;;;7.43;4.43;;;;;;;22.89;38.51;102450.88;5127986;27;20504;-67
2022/05/09 10:47:47;;;;;;;7.05;4.50;;;;;;;23.05;39.63;102450.94;5126130;27;20030;-67
2022/05/09 10:50:25;;;;;;;6.78;3.83;;;;;;;23.23;41.55;102443.09;5127002;27;20722;-67
2022/05/09 10:53:17;;;;;;;7.75;3.28;;;;;;;23.45;39.82;102434.41;5127060;27;20031;-66
2022/05/09 10:55:58;;;;;;;7.03;3.83;;;;;;;23.62;38.70;102437.97;5127128;27;20034;-67
2022/05/09 10:58:35;;;;;;;8.43;3.60;;;;;;;23.69;36.89;102433.56;5106021;27;20103;-67
2022/05/09 11:01:13;;;;;;;7.35;3.35;;;;;;;23.57;36.97;102438.81;5086924;28;20039;-67
2022/05/09 11:03:40;;;;;;;8.35;3.53;;;;;;;23.69;38.06;102438.00;5089956;28;20522;-67
2022/05/09 11:06:17;;;;;;;7.68;4.32;;;;;;;23.70;38.03;102438.00;5101178;27;20366;-67
2022/05/09 11:09:01;;;;;;;8.90;4.65;;;;;;;23.72;37.21;102436.25;5103984;27;20360;-66
2022/05/09 11:12:02;;;;;;;7.78;4.57;;;;;;;23.71;37.21;102429.16;5100190;28;20035;-67
2022/05/09 11:14:34;;;;;;;7.30;4.10;;;;;;;23.70;37.64;102424.75;5104527;28;20071;-67
2022/05/09 11:17:20;;;;;;;8.85;3.95;;;;;;;23.34;35.63;102423.75;5106825;28;20467;-67
2022/05/09 11:19:51;;;;;;;6.85;3.92;;;;;;;23.46;37.05;102423.81;5104641;28;20502;-67
2022/05/09 11:22:25;;;;;;;7.18;3.45;;;;;;;23.60;35.74;102426.50;5107282;28;20031;-67
2022/05/09 11:24:58;;;;;;;8.13;3.47;;;;;;;23.59;37.22;102421.19;5108674;28;20057;-67
2022/05/09 11:28:15;;;;;;;11.13;4.05;;;;;;;23.78;37.61;102406.25;5104229;28;20028;-67
2022/05/09 11:30:52;;;;;;;5.10;3.28;;;;;;;23.98;36.76;102410.66;5083219;28;20750;-67
2022/05/09 11:33:31;;;;;;;5.88;3.28;;;;;;;23.62;35.96;102405.31;5108849;28;20030;-68
2022/05/09 11:36:05;;;;;;;8.25;4.15;;;;;;;23.45;35.82;102403.56;5107464;28;20035;-67
2022/05/09 11:39:25;;;;;;;7.07;4.00;;;;;;;23.40;35.40;102402.63;5104085;28;20374;-67
2022/05/09 11:45:13;;;;;;;6.90;3.90;;;;;;;23.54;35.63;102396.50;5102399;28;20075;-67
2022/05/09 11:48:06;;;;;;;9.75;3.78;;;;;;;23.77;36.56;102393.00;5101916;28;20974;-67
2022/05/09 11:50:46;;;;;;;7.05;3.88;;;;;;;23.93;36.29;102392.16;5103081;28;20028;-68
2022/05/09 11:53:15;;;;;;;10.73;4.57;;;;;;;24.01;35.21;102389.50;5098490;28;20534;-67